sensor_id;sensor_type;location;lat;lon;timestamp;P1;durP1;ratioP1;P2;durP2;ratioP2
50709;SDS011;37033;49.994;21.992;2022-11-20T00:01:28;80.80;;;30.70;;
50709;SDS011;37033;49.994;21.992;2022-11-20T00:04:18;110.50;;;38.20;;
50709;SDS011;37033;49.994;21.992;2022-11-20T00:07:08;106.30;;;37.70;;
50709;SDS011;37033;49.994;21.992;2022-11-20T00:09:58;84.80;;;31.40;;
50709;SDS011;37033;49.994;21.992;2022-11-20T00:12:48;84.40;;;29.50;;
50709;SDS011;37033;49.994;21.992;2022-11-20T00:15:38;89.30;;;34.80;;
50709;SDS011;37033;49.994;21.992;2022-11-20T00:18:28;75.20;;;28.70;;
50709;SDS011;37033;49.994;21.992;2022-11-20T00:21:19;81.70;;;29.10;;
50709;SDS011;37033;49.994;21.992;2022-11-20T00:24:10;77.90;;;28.10;;
50709;SDS011;37033;49.994;21.992;2022-11-20T00:27:00;83.80;;;29.50;;
50709;SDS011;37033;49.994;21.992;2022-11-20T00:29:50;80.70;;;28.70;;
50709;SDS011;37033;49.994;21.992;2022-11-20T00:32:40;74.40;;;28.90;;
50709;SDS011;37033;49.994;21.992;2022-11-20T00:35:30;83.60;;;32.00;;
50709;SDS011;37033;49.994;21.992;2022-11-20T00:38:20;88.50;;;31.10;;
50709;SDS011;37033;49.994;21.992;2022-11-20T00:41:12;81.10;;;30.70;;
50709;SDS011;37033;49.994;21.992;2022-11-20T00:44:03;92.60;;;33.00;;
50709;SDS011;37033;49.994;21.992;2022-11-20T00:46:53;87.60;;;31.30;;
50709;SDS011;37033;49.994;21.992;2022-11-20T00:49:43;74.30;;;29.30;;
50709;SDS011;37033;49.994;21.992;2022-11-20T00:52:33;79.70;;;27.20;;
50709;SDS011;37033;49.994;21.992;2022-11-20T00:55:23;68.60;;;27.60;;
50709;SDS011;37033;49.994;21.992;2022-11-20T00:58:13;75.40;;;28.80;;
50709;SDS011;37033;49.994;21.992;2022-11-20T01:01:04;76.20;;;27.90;;
50709;SDS011;37033;49.994;21.992;2022-11-20T01:03:56;70.80;;;29.10;;
50709;SDS011;37033;49.994;21.992;2022-11-20T01:06:47;75.80;;;30.30;;
50709;SDS011;37033;49.994;21.992;2022-11-20T01:09:37;84.90;;;30.70;;
50709;SDS011;37033;49.994;21.992;2022-11-20T01:12:27;80.80;;;30.90;;
50709;SDS011;37033;49.994;21.992;2022-11-20T01:15:17;86.60;;;33.60;;
50709;SDS011;37033;49.994;21.992;2022-11-20T01:18:07;94.00;;;35.20;;
50709;SDS011;37033;49.994;21.992;2022-11-20T01:21:00;106.10;;;38.00;;
50709;SDS011;37033;49.994;21.992;2022-11-20T01:23:52;80.80;;;31.40;;
50709;SDS011;37033;49.994;21.992;2022-11-20T01:26:43;86.90;;;32.10;;
50709;SDS011;37033;49.994;21.992;2022-11-20T01:29:35;72.80;;;28.20;;
50709;SDS011;37033;49.994;21.992;2022-11-20T01:32:24;65.90;;;26.00;;
50709;SDS011;37033;49.994;21.992;2022-11-20T01:35:15;79.30;;;29.00;;
50709;SDS011;37033;49.994;21.992;2022-11-20T01:38:05;62.80;;;25.20;;
50709;SDS011;37033;49.994;21.992;2022-11-20T01:40:55;65.40;;;26.30;;
50709;SDS011;37033;49.994;21.992;2022-11-20T01:43:46;57.70;;;23.50;;
50709;SDS011;37033;49.994;21.992;2022-11-20T01:46:36;61.20;;;23.40;;
50709;SDS011;37033;49.994;21.992;2022-11-20T01:49:28;65.20;;;23.90;;
50709;SDS011;37033;49.994;21.992;2022-11-20T01:52:24;60.40;;;24.20;;
50709;SDS011;37033;49.994;21.992;2022-11-20T01:55:19;57.90;;;24.10;;
50709;SDS011;37033;49.994;21.992;2022-11-20T01:58:12;58.60;;;23.90;;
50709;SDS011;37033;49.994;21.992;2022-11-20T02:01:03;61.20;;;24.30;;
50709;SDS011;37033;49.994;21.992;2022-11-20T02:03:54;61.50;;;24.00;;
50709;SDS011;37033;49.994;21.992;2022-11-20T02:06:44;62.50;;;24.40;;
50709;SDS011;37033;49.994;21.992;2022-11-20T02:09:37;60.70;;;24.70;;
50709;SDS011;37033;49.994;21.992;2022-11-20T02:12:27;64.40;;;25.40;;
50709;SDS011;37033;49.994;21.992;2022-11-20T02:15:35;48.50;;;21.60;;
50709;SDS011;37033;49.994;21.992;2022-11-20T02:18:25;67.10;;;24.90;;
50709;SDS011;37033;49.994;21.992;2022-11-20T02:21:19;65.50;;;25.70;;
50709;SDS011;37033;49.994;21.992;2022-11-20T02:24:16;66.80;;;24.50;;
50709;SDS011;37033;49.994;21.992;2022-11-20T02:27:07;56.80;;;24.90;;
50709;SDS011;37033;49.994;21.992;2022-11-20T02:30:00;61.40;;;23.60;;
50709;SDS011;37033;49.994;21.992;2022-11-20T02:32:54;63.50;;;23.70;;
50709;SDS011;37033;49.994;21.992;2022-11-20T02:35:45;60.40;;;23.70;;
50709;SDS011;37033;49.994;21.992;2022-11-20T02:38:35;54.20;;;21.10;;
50709;SDS011;37033;49.994;21.992;2022-11-20T02:41:31;57.00;;;23.40;;
50709;SDS011;37033;49.994;21.992;2022-11-20T02:44:25;57.70;;;22.90;;
50709;SDS011;37033;49.994;21.992;2022-11-20T02:47:15;66.30;;;22.90;;
50709;SDS011;37033;49.994;21.992;2022-11-20T02:50:04;61.50;;;23.10;;
50709;SDS011;37033;49.994;21.992;2022-11-20T02:52:55;58.00;;;23.20;;
50709;SDS011;37033;49.994;21.992;2022-11-20T02:55:45;51.60;;;20.20;;
50709;SDS011;37033;49.994;21.992;2022-11-20T02:58:35;53.70;;;22.30;;
50709;SDS011;37033;49.994;21.992;2022-11-20T03:01:25;52.00;;;22.60;;
50709;SDS011;37033;49.994;21.992;2022-11-20T03:04:15;55.50;;;21.50;;
50709;SDS011;37033;49.994;21.992;2022-11-20T03:07:05;53.40;;;20.50;;
50709;SDS011;37033;49.994;21.992;2022-11-20T03:09:55;51.30;;;21.30;;
50709;SDS011;37033;49.994;21.992;2022-11-20T03:12:45;59.20;;;22.50;;
50709;SDS011;37033;49.994;21.992;2022-11-20T03:15:36;53.50;;;21.40;;
50709;SDS011;37033;49.994;21.992;2022-11-20T03:18:28;55.20;;;24.80;;
50709;SDS011;37033;49.994;21.992;2022-11-20T03:21:18;62.80;;;23.20;;
50709;SDS011;37033;49.994;21.992;2022-11-20T03:24:08;52.90;;;21.70;;
50709;SDS011;37033;49.994;21.992;2022-11-20T03:26:58;52.70;;;21.60;;
50709;SDS011;37033;49.994;21.992;2022-11-20T03:29:48;52.00;;;23.20;;
50709;SDS011;37033;49.994;21.992;2022-11-20T03:32:38;52.60;;;21.30;;
50709;SDS011;37033;49.994;21.992;2022-11-20T03:35:28;52.90;;;22.40;;
50709;SDS011;37033;49.994;21.992;2022-11-20T03:38:17;51.50;;;21.80;;
50709;SDS011;37033;49.994;21.992;2022-11-20T03:41:08;56.80;;;21.40;;
50709;SDS011;37033;49.994;21.992;2022-11-20T03:43:59;60.40;;;22.90;;
50709;SDS011;37033;49.994;21.992;2022-11-20T03:46:50;58.70;;;22.80;;
50709;SDS011;37033;49.994;21.992;2022-11-20T03:49:40;58.00;;;21.10;;
50709;SDS011;37033;49.994;21.992;2022-11-20T03:52:30;53.20;;;20.30;;
50709;SDS011;37033;49.994;21.992;2022-11-20T03:55:20;49.00;;;20.40;;
50709;SDS011;37033;49.994;21.992;2022-11-20T03:58:10;59.80;;;22.00;;
50709;SDS011;37033;49.994;21.992;2022-11-20T04:01:05;48.10;;;20.80;;
50709;SDS011;37033;49.994;21.992;2022-11-20T04:03:57;52.00;;;21.80;;
50709;SDS011;37033;49.994;21.992;2022-11-20T04:06:46;54.40;;;22.90;;
50709;SDS011;37033;49.994;21.992;2022-11-20T04:09:36;52.20;;;23.00;;
50709;SDS011;37033;49.994;21.992;2022-11-20T04:12:26;60.90;;;25.50;;
50709;SDS011;37033;49.994;21.992;2022-11-20T04:15:19;61.00;;;27.00;;
50709;SDS011;37033;49.994;21.992;2022-11-20T04:18:09;72.10;;;27.40;;
50709;SDS011;37033;49.994;21.992;2022-11-20T04:20:59;82.30;;;29.50;;
50709;SDS011;37033;49.994;21.992;2022-11-20T04:23:49;88.80;;;31.90;;
50709;SDS011;37033;49.994;21.992;2022-11-20T04:26:40;79.00;;;31.00;;
50709;SDS011;37033;49.994;21.992;2022-11-20T04:29:30;95.00;;;34.10;;
50709;SDS011;37033;49.994;21.992;2022-11-20T04:32:21;104.10;;;38.00;;
50709;SDS011;37033;49.994;21.992;2022-11-20T04:35:10;113.40;;;38.90;;
50709;SDS011;37033;49.994;21.992;2022-11-20T04:38:00;103.60;;;37.80;;
50709;SDS011;37033;49.994;21.992;2022-11-20T04:40:51;121.80;;;37.50;;
50709;SDS011;37033;49.994;21.992;2022-11-20T04:43:47;115.50;;;40.20;;
50709;SDS011;37033;49.994;21.992;2022-11-20T04:46:37;110.70;;;40.80;;
50709;SDS011;37033;49.994;21.992;2022-11-20T04:49:29;101.60;;;35.50;;
50709;SDS011;37033;49.994;21.992;2022-11-20T04:52:21;101.40;;;35.80;;
50709;SDS011;37033;49.994;21.992;2022-11-20T04:55:10;105.80;;;36.80;;
50709;SDS011;37033;49.994;21.992;2022-11-20T04:58:00;95.90;;;37.60;;
50709;SDS011;37033;49.994;21.992;2022-11-20T05:00:50;98.60;;;36.10;;
50709;SDS011;37033;49.994;21.992;2022-11-20T05:03:40;100.80;;;36.30;;
50709;SDS011;37033;49.994;21.992;2022-11-20T05:06:31;96.70;;;35.70;;
50709;SDS011;37033;49.994;21.992;2022-11-20T05:09:21;94.30;;;35.30;;
50709;SDS011;37033;49.994;21.992;2022-11-20T05:12:11;91.30;;;37.30;;
50709;SDS011;37033;49.994;21.992;2022-11-20T05:15:01;100.40;;;35.40;;
50709;SDS011;37033;49.994;21.992;2022-11-20T05:17:51;106.20;;;38.90;;
50709;SDS011;37033;49.994;21.992;2022-11-20T05:20:42;103.30;;;37.30;;
50709;SDS011;37033;49.994;21.992;2022-11-20T05:23:32;97.80;;;34.20;;
50709;SDS011;37033;49.994;21.992;2022-11-20T05:26:23;100.90;;;34.70;;
50709;SDS011;37033;49.994;21.992;2022-11-20T05:29:13;92.90;;;33.20;;
50709;SDS011;37033;49.994;21.992;2022-11-20T05:32:03;94.60;;;35.10;;
50709;SDS011;37033;49.994;21.992;2022-11-20T05:34:56;84.20;;;32.70;;
50709;SDS011;37033;49.994;21.992;2022-11-20T05:37:46;86.30;;;33.20;;
50709;SDS011;37033;49.994;21.992;2022-11-20T05:40:36;90.50;;;34.40;;
50709;SDS011;37033;49.994;21.992;2022-11-20T05:43:27;85.00;;;33.80;;
50709;SDS011;37033;49.994;21.992;2022-11-20T05:46:19;88.60;;;32.70;;
50709;SDS011;37033;49.994;21.992;2022-11-20T05:49:09;83.40;;;33.40;;
50709;SDS011;37033;49.994;21.992;2022-11-20T05:51:59;92.60;;;36.10;;
50709;SDS011;37033;49.994;21.992;2022-11-20T05:54:49;85.70;;;31.00;;
50709;SDS011;37033;49.994;21.992;2022-11-20T05:57:40;89.20;;;34.10;;
50709;SDS011;37033;49.994;21.992;2022-11-20T06:00:31;89.90;;;32.20;;
50709;SDS011;37033;49.994;21.992;2022-11-20T06:03:21;83.70;;;32.70;;
50709;SDS011;37033;49.994;21.992;2022-11-20T06:06:11;91.00;;;33.90;;
50709;SDS011;37033;49.994;21.992;2022-11-20T06:09:01;90.30;;;34.80;;
50709;SDS011;37033;49.994;21.992;2022-11-20T06:11:51;80.70;;;32.00;;
50709;SDS011;37033;49.994;21.992;2022-11-20T06:14:41;78.60;;;32.90;;
50709;SDS011;37033;49.994;21.992;2022-11-20T06:17:31;80.50;;;32.10;;
50709;SDS011;37033;49.994;21.992;2022-11-20T06:20:21;88.60;;;33.10;;
50709;SDS011;37033;49.994;21.992;2022-11-20T06:23:11;93.70;;;37.20;;
50709;SDS011;37033;49.994;21.992;2022-11-20T06:26:02;89.30;;;34.90;;
50709;SDS011;37033;49.994;21.992;2022-11-20T06:28:54;91.40;;;37.30;;
50709;SDS011;37033;49.994;21.992;2022-11-20T06:31:44;86.20;;;35.60;;
50709;SDS011;37033;49.994;21.992;2022-11-20T06:34:34;100.80;;;33.90;;
50709;SDS011;37033;49.994;21.992;2022-11-20T06:37:24;90.90;;;33.80;;
50709;SDS011;37033;49.994;21.992;2022-11-20T06:40:14;86.70;;;31.80;;
50709;SDS011;37033;49.994;21.992;2022-11-20T06:43:04;97.00;;;37.60;;
50709;SDS011;37033;49.994;21.992;2022-11-20T06:45:54;91.90;;;36.30;;
50709;SDS011;37033;49.994;21.992;2022-11-20T06:48:45;100.90;;;37.90;;
50709;SDS011;37033;49.994;21.992;2022-11-20T06:51:36;97.90;;;36.30;;
50709;SDS011;37033;49.994;21.992;2022-11-20T06:54:26;130.10;;;45.90;;
50709;SDS011;37033;49.994;21.992;2022-11-20T06:57:16;148.20;;;49.80;;
50709;SDS011;37033;49.994;21.992;2022-11-20T07:00:06;133.70;;;48.20;;
50709;SDS011;37033;49.994;21.992;2022-11-20T07:02:58;126.70;;;45.20;;
50709;SDS011;37033;49.994;21.992;2022-11-20T07:05:53;127.90;;;42.40;;
50709;SDS011;37033;49.994;21.992;2022-11-20T07:08:44;124.10;;;44.20;;
50709;SDS011;37033;49.994;21.992;2022-11-20T07:11:35;128.10;;;44.20;;
50709;SDS011;37033;49.994;21.992;2022-11-20T07:14:25;126.30;;;44.20;;
50709;SDS011;37033;49.994;21.992;2022-11-20T07:17:15;108.00;;;42.40;;
50709;SDS011;37033;49.994;21.992;2022-11-20T07:20:05;121.90;;;44.00;;
50709;SDS011;37033;49.994;21.992;2022-11-20T07:22:57;122.00;;;43.20;;
50709;SDS011;37033;49.994;21.992;2022-11-20T07:25:47;108.30;;;39.90;;
50709;SDS011;37033;49.994;21.992;2022-11-20T07:28:37;91.20;;;37.00;;
50709;SDS011;37033;49.994;21.992;2022-11-20T07:31:26;104.80;;;37.00;;
50709;SDS011;37033;49.994;21.992;2022-11-20T07:34:17;113.40;;;38.50;;
50709;SDS011;37033;49.994;21.992;2022-11-20T07:37:07;104.40;;;37.20;;
50709;SDS011;37033;49.994;21.992;2022-11-20T07:39:57;94.90;;;36.70;;
50709;SDS011;37033;49.994;21.992;2022-11-20T07:42:51;124.50;;;45.80;;
50709;SDS011;37033;49.994;21.992;2022-11-20T07:45:42;105.40;;;37.60;;
50709;SDS011;37033;49.994;21.992;2022-11-20T07:48:32;117.00;;;44.30;;
50709;SDS011;37033;49.994;21.992;2022-11-20T07:51:22;103.10;;;39.50;;
50709;SDS011;37033;49.994;21.992;2022-11-20T07:54:13;97.70;;;40.90;;
50709;SDS011;37033;49.994;21.992;2022-11-20T07:57:02;104.80;;;39.50;;
50709;SDS011;37033;49.994;21.992;2022-11-20T07:59:52;98.30;;;43.60;;
50709;SDS011;37033;49.994;21.992;2022-11-20T08:02:43;108.80;;;44.60;;
50709;SDS011;37033;49.994;21.992;2022-11-20T08:05:33;112.70;;;45.00;;
50709;SDS011;37033;49.994;21.992;2022-11-20T08:08:24;159.20;;;63.60;;
50709;SDS011;37033;49.994;21.992;2022-11-20T08:11:14;115.70;;;47.30;;
50709;SDS011;37033;49.994;21.992;2022-11-20T08:14:22;102.90;;;42.70;;
50709;SDS011;37033;49.994;21.992;2022-11-20T08:17:14;103.50;;;42.50;;
50709;SDS011;37033;49.994;21.992;2022-11-20T08:20:06;105.60;;;43.60;;
50709;SDS011;37033;49.994;21.992;2022-11-20T08:23:00;105.90;;;41.20;;
50709;SDS011;37033;49.994;21.992;2022-11-20T08:25:52;111.70;;;43.20;;
50709;SDS011;37033;49.994;21.992;2022-11-20T08:28:42;96.40;;;41.70;;
50709;SDS011;37033;49.994;21.992;2022-11-20T08:31:32;104.60;;;42.50;;
50709;SDS011;37033;49.994;21.992;2022-11-20T08:34:39;99.00;;;42.20;;
50709;SDS011;37033;49.994;21.992;2022-11-20T08:37:29;118.90;;;44.70;;
50709;SDS011;37033;49.994;21.992;2022-11-20T08:40:18;116.20;;;42.40;;
50709;SDS011;37033;49.994;21.992;2022-11-20T08:43:08;102.00;;;40.10;;
50709;SDS011;37033;49.994;21.992;2022-11-20T08:45:58;110.00;;;45.20;;
50709;SDS011;37033;49.994;21.992;2022-11-20T08:48:48;104.00;;;41.00;;
50709;SDS011;37033;49.994;21.992;2022-11-20T08:51:37;97.60;;;41.70;;
50709;SDS011;37033;49.994;21.992;2022-11-20T08:54:28;88.70;;;39.60;;
50709;SDS011;37033;49.994;21.992;2022-11-20T08:57:18;107.40;;;43.40;;
50709;SDS011;37033;49.994;21.992;2022-11-20T09:00:09;95.30;;;43.10;;
50709;SDS011;37033;49.994;21.992;2022-11-20T09:03:01;100.50;;;42.50;;
50709;SDS011;37033;49.994;21.992;2022-11-20T09:05:55;104.50;;;43.70;;
50709;SDS011;37033;49.994;21.992;2022-11-20T09:08:47;95.30;;;40.60;;
50709;SDS011;37033;49.994;21.992;2022-11-20T09:11:39;111.80;;;43.80;;
50709;SDS011;37033;49.994;21.992;2022-11-20T09:14:29;103.10;;;40.60;;
50709;SDS011;37033;49.994;21.992;2022-11-20T09:17:20;115.60;;;44.90;;
50709;SDS011;37033;49.994;21.992;2022-11-20T09:20:11;95.80;;;40.30;;
50709;SDS011;37033;49.994;21.992;2022-11-20T09:23:00;109.90;;;43.80;;
50709;SDS011;37033;49.994;21.992;2022-11-20T09:25:50;107.50;;;42.60;;
50709;SDS011;37033;49.994;21.992;2022-11-20T09:28:43;97.90;;;42.40;;
50709;SDS011;37033;49.994;21.992;2022-11-20T09:31:33;118.30;;;46.80;;
50709;SDS011;37033;49.994;21.992;2022-11-20T09:34:23;113.50;;;44.30;;
50709;SDS011;37033;49.994;21.992;2022-11-20T09:37:13;111.60;;;44.70;;
50709;SDS011;37033;49.994;21.992;2022-11-20T09:40:03;104.90;;;42.40;;
50709;SDS011;37033;49.994;21.992;2022-11-20T09:42:56;106.00;;;43.40;;
50709;SDS011;37033;49.994;21.992;2022-11-20T09:45:53;93.20;;;39.60;;
50709;SDS011;37033;49.994;21.992;2022-11-20T09:49:05;94.30;;;39.20;;
50709;SDS011;37033;49.994;21.992;2022-11-20T09:52:11;94.30;;;40.40;;
50709;SDS011;37033;49.994;21.992;2022-11-20T09:55:10;90.50;;;38.90;;
50709;SDS011;37033;49.994;21.992;2022-11-20T09:58:02;96.30;;;39.00;;
50709;SDS011;37033;49.994;21.992;2022-11-20T10:00:55;74.40;;;33.50;;
50709;SDS011;37033;49.994;21.992;2022-11-20T10:03:54;79.40;;;35.90;;
50709;SDS011;37033;49.994;21.992;2022-11-20T10:06:50;86.10;;;36.20;;
50709;SDS011;37033;49.994;21.992;2022-11-20T10:09:50;80.00;;;35.10;;
50709;SDS011;37033;49.994;21.992;2022-11-20T10:12:46;82.80;;;34.50;;
50709;SDS011;37033;49.994;21.992;2022-11-20T10:15:54;80.80;;;35.50;;
50709;SDS011;37033;49.994;21.992;2022-11-20T10:19:00;81.80;;;34.70;;
50709;SDS011;37033;49.994;21.992;2022-11-20T10:22:03;81.80;;;35.80;;
50709;SDS011;37033;49.994;21.992;2022-11-20T10:25:02;90.80;;;39.40;;
50709;SDS011;37033;49.994;21.992;2022-11-20T10:28:03;73.70;;;31.50;;
50709;SDS011;37033;49.994;21.992;2022-11-20T10:31:02;78.30;;;34.10;;
50709;SDS011;37033;49.994;21.992;2022-11-20T10:33:56;65.10;;;30.40;;
50709;SDS011;37033;49.994;21.992;2022-11-20T10:36:52;69.60;;;31.90;;
50709;SDS011;37033;49.994;21.992;2022-11-20T10:39:47;81.60;;;34.10;;
50709;SDS011;37033;49.994;21.992;2022-11-20T10:42:44;72.40;;;32.70;;
50709;SDS011;37033;49.994;21.992;2022-11-20T10:45:42;70.80;;;31.40;;
50709;SDS011;37033;49.994;21.992;2022-11-20T10:48:38;61.80;;;29.10;;
50709;SDS011;37033;49.994;21.992;2022-11-20T10:51:34;68.40;;;30.80;;
50709;SDS011;37033;49.994;21.992;2022-11-20T10:54:32;75.00;;;33.20;;
50709;SDS011;37033;49.994;21.992;2022-11-20T10:57:35;84.80;;;35.20;;
50709;SDS011;37033;49.994;21.992;2022-11-20T11:00:34;88.80;;;35.60;;
50709;SDS011;37033;49.994;21.992;2022-11-20T11:03:25;87.40;;;37.30;;
50709;SDS011;37033;49.994;21.992;2022-11-20T11:06:19;104.50;;;45.10;;
50709;SDS011;37033;49.994;21.992;2022-11-20T11:09:15;117.20;;;44.40;;
50709;SDS011;37033;49.994;21.992;2022-11-20T11:12:15;90.80;;;39.60;;
50709;SDS011;37033;49.994;21.992;2022-11-20T11:15:11;83.60;;;36.30;;
50709;SDS011;37033;49.994;21.992;2022-11-20T11:18:22;77.30;;;35.60;;
50709;SDS011;37033;49.994;21.992;2022-11-20T11:21:13;81.30;;;34.90;;
50709;SDS011;37033;49.994;21.992;2022-11-20T11:24:19;70.90;;;31.60;;
50709;SDS011;37033;49.994;21.992;2022-11-20T11:27:13;62.10;;;28.50;;
50709;SDS011;37033;49.994;21.992;2022-11-20T11:30:11;69.70;;;29.60;;
50709;SDS011;37033;49.994;21.992;2022-11-20T11:33:04;45.00;;;22.80;;
50709;SDS011;37033;49.994;21.992;2022-11-20T11:35:58;52.30;;;23.80;;
50709;SDS011;37033;49.994;21.992;2022-11-20T11:38:50;57.00;;;25.10;;
50709;SDS011;37033;49.994;21.992;2022-11-20T11:41:41;60.10;;;29.30;;
50709;SDS011;37033;49.994;21.992;2022-11-20T11:44:31;71.00;;;33.00;;
50709;SDS011;37033;49.994;21.992;2022-11-20T11:47:44;49.60;;;22.60;;
50709;SDS011;37033;49.994;21.992;2022-11-20T11:50:35;59.90;;;28.20;;
50709;SDS011;37033;49.994;21.992;2022-11-20T11:53:35;60.60;;;29.90;;
50709;SDS011;37033;49.994;21.992;2022-11-20T11:56:29;67.70;;;30.50;;
50709;SDS011;37033;49.994;21.992;2022-11-20T11:59:25;83.80;;;36.80;;
50709;SDS011;37033;49.994;21.992;2022-11-20T12:02:34;56.10;;;27.40;;
50709;SDS011;37033;49.994;21.992;2022-11-20T12:05:29;62.50;;;28.30;;
50709;SDS011;37033;49.994;21.992;2022-11-20T12:08:25;80.90;;;34.30;;
50709;SDS011;37033;49.994;21.992;2022-11-20T12:11:20;88.80;;;35.20;;
50709;SDS011;37033;49.994;21.992;2022-11-20T12:14:19;75.20;;;32.70;;
50709;SDS011;37033;49.994;21.992;2022-11-20T12:17:15;85.80;;;35.70;;
50709;SDS011;37033;49.994;21.992;2022-11-20T12:20:10;95.20;;;39.70;;
50709;SDS011;37033;49.994;21.992;2022-11-20T12:23:04;96.50;;;40.80;;
50709;SDS011;37033;49.994;21.992;2022-11-20T12:26:03;101.60;;;44.50;;
50709;SDS011;37033;49.994;21.992;2022-11-20T12:29:05;103.20;;;42.00;;
50709;SDS011;37033;49.994;21.992;2022-11-20T12:32:14;97.30;;;41.80;;
50709;SDS011;37033;49.994;21.992;2022-11-20T12:35:24;88.30;;;37.30;;
50709;SDS011;37033;49.994;21.992;2022-11-20T12:45:51;91.20;;;39.30;;
50709;SDS011;37033;49.994;21.992;2022-11-20T12:48:53;82.60;;;37.20;;
50709;SDS011;37033;49.994;21.992;2022-11-20T12:52:01;79.80;;;34.80;;
50709;SDS011;37033;49.994;21.992;2022-11-20T12:55:07;85.00;;;36.40;;
50709;SDS011;37033;49.994;21.992;2022-11-20T12:58:15;75.70;;;35.20;;
50709;SDS011;37033;49.994;21.992;2022-11-20T13:01:16;71.00;;;33.00;;
50709;SDS011;37033;49.994;21.992;2022-11-20T13:04:38;91.10;;;37.20;;
50709;SDS011;37033;49.994;21.992;2022-11-20T13:07:37;76.20;;;34.70;;
50709;SDS011;37033;49.994;21.992;2022-11-20T13:10:31;93.80;;;41.40;;
50709;SDS011;37033;49.994;21.992;2022-11-20T13:13:29;86.00;;;36.00;;
50709;SDS011;37033;49.994;21.992;2022-11-20T13:16:30;102.10;;;41.50;;
50709;SDS011;37033;49.994;21.992;2022-11-20T13:19:25;94.60;;;42.00;;
50709;SDS011;37033;49.994;21.992;2022-11-20T13:22:24;103.40;;;44.20;;
50709;SDS011;37033;49.994;21.992;2022-11-20T13:25:26;87.90;;;40.40;;
50709;SDS011;37033;49.994;21.992;2022-11-20T13:28:27;92.20;;;39.70;;
50709;SDS011;37033;49.994;21.992;2022-11-20T13:31:29;91.30;;;37.50;;
50709;SDS011;37033;49.994;21.992;2022-11-20T13:34:24;102.00;;;44.10;;
50709;SDS011;37033;49.994;21.992;2022-11-20T13:37:25;83.90;;;35.90;;
50709;SDS011;37033;49.994;21.992;2022-11-20T13:40:23;95.20;;;38.00;;
50709;SDS011;37033;49.994;21.992;2022-11-20T13:43:18;122.40;;;48.70;;
50709;SDS011;37033;49.994;21.992;2022-11-20T13:46:14;96.60;;;39.60;;
50709;SDS011;37033;49.994;21.992;2022-11-20T13:49:16;126.70;;;47.30;;
50709;SDS011;37033;49.994;21.992;2022-11-20T13:52:25;94.70;;;41.10;;
50709;SDS011;37033;49.994;21.992;2022-11-20T13:55:28;92.40;;;39.10;;
50709;SDS011;37033;49.994;21.992;2022-11-20T13:58:28;100.60;;;40.40;;
50709;SDS011;37033;49.994;21.992;2022-11-20T14:01:29;106.80;;;41.60;;
50709;SDS011;37033;49.994;21.992;2022-11-20T14:04:23;95.00;;;37.70;;
50709;SDS011;37033;49.994;21.992;2022-11-20T14:07:18;108.40;;;43.30;;
50709;SDS011;37033;49.994;21.992;2022-11-20T14:10:20;101.60;;;41.70;;
50709;SDS011;37033;49.994;21.992;2022-11-20T14:13:12;113.20;;;43.80;;
50709;SDS011;37033;49.994;21.992;2022-11-20T14:16:06;103.20;;;42.60;;
50709;SDS011;37033;49.994;21.992;2022-11-20T14:19:22;109.90;;;44.60;;
50709;SDS011;37033;49.994;21.992;2022-11-20T14:22:18;123.30;;;46.10;;
50709;SDS011;37033;49.994;21.992;2022-11-20T14:25:19;114.40;;;46.10;;
50709;SDS011;37033;49.994;21.992;2022-11-20T14:28:18;118.30;;;44.70;;
50709;SDS011;37033;49.994;21.992;2022-11-20T14:31:16;117.80;;;43.20;;
50709;SDS011;37033;49.994;21.992;2022-11-20T14:34:12;94.40;;;38.30;;
50709;SDS011;37033;49.994;21.992;2022-11-20T14:37:10;101.20;;;41.90;;
50709;SDS011;37033;49.994;21.992;2022-11-20T14:40:20;94.80;;;39.80;;
50709;SDS011;37033;49.994;21.992;2022-11-20T14:43:18;109.30;;;40.50;;
50709;SDS011;37033;49.994;21.992;2022-11-20T14:46:11;104.20;;;41.70;;
50709;SDS011;37033;49.994;21.992;2022-11-20T14:49:02;103.30;;;41.30;;
50709;SDS011;37033;49.994;21.992;2022-11-20T14:51:59;118.80;;;45.20;;
50709;SDS011;37033;49.994;21.992;2022-11-20T14:54:50;111.80;;;46.30;;
50709;SDS011;37033;49.994;21.992;2022-11-20T14:57:42;115.30;;;47.00;;
50709;SDS011;37033;49.994;21.992;2022-11-20T15:00:42;139.00;;;56.90;;
50709;SDS011;37033;49.994;21.992;2022-11-20T15:03:43;141.80;;;53.60;;
50709;SDS011;37033;49.994;21.992;2022-11-20T15:06:34;166.20;;;62.10;;
50709;SDS011;37033;49.994;21.992;2022-11-20T15:09:24;146.10;;;58.30;;
50709;SDS011;37033;49.994;21.992;2022-11-20T15:12:16;106.80;;;44.40;;
50709;SDS011;37033;49.994;21.992;2022-11-20T15:15:08;136.20;;;52.80;;
50709;SDS011;37033;49.994;21.992;2022-11-20T15:18:03;150.70;;;57.20;;
50709;SDS011;37033;49.994;21.992;2022-11-20T15:21:00;149.10;;;58.00;;
50709;SDS011;37033;49.994;21.992;2022-11-20T15:23:51;157.00;;;59.50;;
50709;SDS011;37033;49.994;21.992;2022-11-20T15:26:41;154.60;;;62.50;;
50709;SDS011;37033;49.994;21.992;2022-11-20T15:29:31;160.60;;;61.10;;
50709;SDS011;37033;49.994;21.992;2022-11-20T15:32:20;160.40;;;58.40;;
50709;SDS011;37033;49.994;21.992;2022-11-20T15:35:12;158.70;;;62.80;;
50709;SDS011;37033;49.994;21.992;2022-11-20T15:38:04;154.90;;;60.40;;
50709;SDS011;37033;49.994;21.992;2022-11-20T15:40:54;159.30;;;62.70;;
50709;SDS011;37033;49.994;21.992;2022-11-20T15:43:44;153.90;;;60.90;;
50709;SDS011;37033;49.994;21.992;2022-11-20T15:46:35;152.90;;;62.60;;
50709;SDS011;37033;49.994;21.992;2022-11-20T15:49:29;238.20;;;83.20;;
50709;SDS011;37033;49.994;21.992;2022-11-20T15:52:18;212.40;;;80.90;;
50709;SDS011;37033;49.994;21.992;2022-11-20T15:55:10;220.20;;;82.70;;
50709;SDS011;37033;49.994;21.992;2022-11-20T15:57:59;196.10;;;76.10;;
50709;SDS011;37033;49.994;21.992;2022-11-20T16:00:49;185.50;;;68.50;;
50709;SDS011;37033;49.994;21.992;2022-11-20T16:03:40;184.20;;;72.50;;
50709;SDS011;37033;49.994;21.992;2022-11-20T16:06:30;188.90;;;76.20;;
50709;SDS011;37033;49.994;21.992;2022-11-20T16:09:20;193.20;;;74.90;;
50709;SDS011;37033;49.994;21.992;2022-11-20T16:12:11;199.60;;;79.20;;
50709;SDS011;37033;49.994;21.992;2022-11-20T16:15:21;183.00;;;68.20;;
50709;SDS011;37033;49.994;21.992;2022-11-20T16:18:29;157.20;;;60.80;;
50709;SDS011;37033;49.994;21.992;2022-11-20T16:21:19;130.30;;;53.40;;
50709;SDS011;37033;49.994;21.992;2022-11-20T16:24:15;149.70;;;55.40;;
50709;SDS011;37033;49.994;21.992;2022-11-20T16:27:05;111.60;;;45.20;;
50709;SDS011;37033;49.994;21.992;2022-11-20T16:29:54;101.00;;;39.30;;
50709;SDS011;37033;49.994;21.992;2022-11-20T16:32:44;116.70;;;46.50;;
50709;SDS011;37033;49.994;21.992;2022-11-20T16:35:33;133.50;;;54.30;;
50709;SDS011;37033;49.994;21.992;2022-11-20T16:38:23;146.30;;;53.70;;
50709;SDS011;37033;49.994;21.992;2022-11-20T16:41:13;132.00;;;53.40;;